Terminal Aerodrome Forecast
Issued by NWS

Home | Current Version | Previous Version | Text Only | Print | Product List | Glossary On
Versions: 1 2 3 4 5 6 7 8 9 10 11 12
198
FTUS42 TJSJ 211733
TAFJPS
TAF
TJPS 211733Z 2118/2218 18004KT P6SM FEW030
     FM212330 VRB02KT P6SM FEW030
     FM221430 18006KT P6SM SCT030
      AMD NOT SKED TIL 220300=

USA.gov is the U.S. government's official web portal to all federal, state and local government web resources and services.